sensor_id;sensor_type;location;lat;lon;timestamp;pressure;altitude;pressure_sealevel;temperature;humidity
60479;BME280;46321;48.398;11.754;2023-05-21T00:00:43;96240.94;;;15.49;69.30
60479;BME280;46321;48.398;11.754;2023-05-21T00:03:08;96245.28;;;15.43;69.52
60479;BME280;46321;48.398;11.754;2023-05-21T00:05:39;96234.00;;;15.41;69.59
60479;BME280;46321;48.398;11.754;2023-05-21T00:08:04;96241.41;;;15.39;69.27
60479;BME280;46321;48.398;11.754;2023-05-21T00:10:30;96240.59;;;15.31;69.94
60479;BME280;46321;48.398;11.754;2023-05-21T00:12:55;96238.16;;;15.30;69.60
60479;BME280;46321;48.398;11.754;2023-05-21T00:15:20;96236.72;;;15.27;69.62
60479;BME280;46321;48.398;11.754;2023-05-21T00:17:45;96230.34;;;15.28;69.48
60479;BME280;46321;48.398;11.754;2023-05-21T00:20:11;96222.78;;;15.25;69.01
60479;BME280;46321;48.398;11.754;2023-05-21T00:22:37;96228.34;;;15.17;69.31
60479;BME280;46321;48.398;11.754;2023-05-21T00:25:02;96228.34;;;15.17;69.51
60479;BME280;46321;48.398;11.754;2023-05-21T00:27:28;96226.69;;;15.22;68.77
60479;BME280;46321;48.398;11.754;2023-05-21T00:29:53;96225.28;;;15.20;68.39
60479;BME280;46321;48.398;11.754;2023-05-21T00:32:18;96213.63;;;15.14;68.96
60479;BME280;46321;48.398;11.754;2023-05-21T00:34:44;96217.69;;;15.17;68.35
60479;BME280;46321;48.398;11.754;2023-05-21T00:37:09;96222.41;;;15.15;67.89
60479;BME280;46321;48.398;11.754;2023-05-21T00:39:34;96216.94;;;15.03;68.38
60479;BME280;46321;48.398;11.754;2023-05-21T00:42:00;96221.03;;;15.05;68.45
60479;BME280;46321;48.398;11.754;2023-05-21T00:44:28;96216.91;;;15.09;68.14
60479;BME280;46321;48.398;11.754;2023-05-21T00:47:01;96213.22;;;15.04;67.98
60479;BME280;46321;48.398;11.754;2023-05-21T00:49:26;96213.22;;;15.04;68.28
60479;BME280;46321;48.398;11.754;2023-05-21T00:51:52;96213.44;;;15.02;68.28
60479;BME280;46321;48.398;11.754;2023-05-21T00:54:19;96201.16;;;14.94;68.61
60479;BME280;46321;48.398;11.754;2023-05-21T00:56:45;96203.88;;;14.81;68.81
60479;BME280;46321;48.398;11.754;2023-05-21T00:59:11;96200.16;;;14.88;68.59
60479;BME280;46321;48.398;11.754;2023-05-21T01:01:36;96205.91;;;14.85;68.73
60479;BME280;46321;48.398;11.754;2023-05-21T01:04:02;96200.38;;;14.80;68.75
60479;BME280;46321;48.398;11.754;2023-05-21T01:06:27;96201.38;;;14.79;68.57
60479;BME280;46321;48.398;11.754;2023-05-21T01:08:54;96202.81;;;14.82;68.30
60479;BME280;46321;48.398;11.754;2023-05-21T01:11:48;96201.81;;;14.76;68.30
60479;BME280;46321;48.398;11.754;2023-05-21T01:14:15;96201.63;;;14.71;68.77
60479;BME280;46321;48.398;11.754;2023-05-21T01:16:42;96199.34;;;14.74;68.46
60479;BME280;46321;48.398;11.754;2023-05-21T01:19:14;96195.47;;;14.70;68.21
60479;BME280;46321;48.398;11.754;2023-05-21T01:21:42;96202.47;;;14.64;68.35
60479;BME280;46321;48.398;11.754;2023-05-21T01:24:08;96203.69;;;14.69;68.31
60479;BME280;46321;48.398;11.754;2023-05-21T01:26:34;96199.78;;;14.64;68.17
60479;BME280;46321;48.398;11.754;2023-05-21T01:29:04;96198.75;;;14.65;68.21
60479;BME280;46321;48.398;11.754;2023-05-21T01:31:36;96189.16;;;14.58;68.12
60479;BME280;46321;48.398;11.754;2023-05-21T01:34:06;96198.59;;;14.53;68.38
60479;BME280;46321;48.398;11.754;2023-05-21T01:36:37;96196.53;;;14.62;68.00
60479;BME280;46321;48.398;11.754;2023-05-21T01:39:32;96196.72;;;14.61;68.22
60479;BME280;46321;48.398;11.754;2023-05-21T01:41:59;96200.22;;;14.54;67.88
60479;BME280;46321;48.398;11.754;2023-05-21T01:44:27;96193.28;;;14.47;68.33
60479;BME280;46321;48.398;11.754;2023-05-21T01:46:53;96193.88;;;14.49;67.92
60479;BME280;46321;48.398;11.754;2023-05-21T01:49:21;96196.56;;;14.49;67.83
60479;BME280;46321;48.398;11.754;2023-05-21T01:51:47;96194.06;;;14.47;67.67
60479;BME280;46321;48.398;11.754;2023-05-21T01:54:13;96201.88;;;14.42;68.05
60479;BME280;46321;48.398;11.754;2023-05-21T01:56:38;96191.41;;;14.40;68.00
60479;BME280;46321;48.398;11.754;2023-05-21T01:59:04;96196.34;;;14.30;68.67
60479;BME280;46321;48.398;11.754;2023-05-21T02:01:29;96196.97;;;14.32;68.72
60479;BME280;46321;48.398;11.754;2023-05-21T02:03:55;96188.38;;;14.30;68.13
60479;BME280;46321;48.398;11.754;2023-05-21T02:06:21;96185.31;;;14.19;68.61
60479;BME280;46321;48.398;11.754;2023-05-21T02:08:47;96185.53;;;14.18;68.41
60479;BME280;46321;48.398;11.754;2023-05-21T02:11:12;96181.84;;;14.19;68.63
60479;BME280;46321;48.398;11.754;2023-05-21T02:13:38;96180.22;;;14.11;68.72
60479;BME280;46321;48.398;11.754;2023-05-21T02:16:07;96184.28;;;14.20;68.07
60479;BME280;46321;48.398;11.754;2023-05-21T02:18:41;96179.16;;;14.12;68.08
60479;BME280;46321;48.398;11.754;2023-05-21T02:21:10;96187.16;;;14.19;68.21
60479;BME280;46321;48.398;11.754;2023-05-21T02:23:36;96191.03;;;14.16;68.06
60479;BME280;46321;48.398;11.754;2023-05-21T02:26:02;96191.25;;;14.15;68.03
60479;BME280;46321;48.398;11.754;2023-05-21T02:28:27;96192.06;;;14.02;68.28
60479;BME280;46321;48.398;11.754;2023-05-21T02:30:54;96200.25;;;13.93;68.81
60479;BME280;46321;48.398;11.754;2023-05-21T02:33:19;96190.41;;;13.87;68.71
60479;BME280;46321;48.398;11.754;2023-05-21T02:35:46;96191.44;;;13.72;69.44
60479;BME280;46321;48.398;11.754;2023-05-21T02:38:11;96187.16;;;13.85;68.72
60479;BME280;46321;48.398;11.754;2023-05-21T02:40:37;96194.72;;;13.88;68.61
60479;BME280;46321;48.398;11.754;2023-05-21T02:43:03;96188.59;;;13.88;68.58
60479;BME280;46321;48.398;11.754;2023-05-21T02:45:28;96179.38;;;13.77;68.46
60479;BME280;46321;48.398;11.754;2023-05-21T02:47:53;96184.47;;;13.71;68.38
60479;BME280;46321;48.398;11.754;2023-05-21T02:50:19;96185.09;;;13.73;68.52
60479;BME280;46321;48.398;11.754;2023-05-21T02:52:46;96187.75;;;13.80;68.31
60479;BME280;46321;48.398;11.754;2023-05-21T02:55:11;96190.03;;;13.90;67.82
60479;BME280;46321;48.398;11.754;2023-05-21T02:57:37;96182.03;;;13.83;67.24
60479;BME280;46321;48.398;11.754;2023-05-21T03:00:03;96184.28;;;13.80;67.42
60479;BME280;46321;48.398;11.754;2023-05-21T03:02:30;96188.78;;;13.79;67.47
60479;BME280;46321;48.398;11.754;2023-05-21T03:04:55;96194.94;;;13.87;67.23
60479;BME280;46321;48.398;11.754;2023-05-21T03:07:20;96181.63;;;13.73;67.04
60479;BME280;46321;48.398;11.754;2023-05-21T03:09:45;96189.78;;;13.71;67.54
60479;BME280;46321;48.398;11.754;2023-05-21T03:12:11;96185.31;;;13.79;66.91
60479;BME280;46321;48.398;11.754;2023-05-21T03:14:36;96186.13;;;13.86;66.92
60479;BME280;46321;48.398;11.754;2023-05-21T03:17:02;96180.00;;;13.79;67.21
60479;BME280;46321;48.398;11.754;2023-05-21T03:19:30;96183.88;;;13.76;67.12
60479;BME280;46321;48.398;11.754;2023-05-21T03:21:58;96174.44;;;13.73;66.69
60479;BME280;46321;48.398;11.754;2023-05-21T03:24:23;96181.63;;;13.73;67.02
60479;BME280;46321;48.398;11.754;2023-05-21T03:26:49;96175.69;;;13.71;66.97
60479;BME280;46321;48.398;11.754;2023-05-21T03:29:14;96172.00;;;13.65;67.08
60479;BME280;46321;48.398;11.754;2023-05-21T03:31:40;96171.78;;;13.67;67.26
60479;BME280;46321;48.398;11.754;2023-05-21T03:34:05;96178.34;;;13.57;67.86
60479;BME280;46321;48.398;11.754;2023-05-21T03:36:32;96167.25;;;13.54;67.57
60479;BME280;46321;48.398;11.754;2023-05-21T03:38:57;96175.63;;;13.50;68.06
60479;BME280;46321;48.398;11.754;2023-05-21T03:41:23;96172.53;;;13.40;68.59
60479;BME280;46321;48.398;11.754;2023-05-21T03:43:48;96167.63;;;13.37;68.33
60479;BME280;46321;48.398;11.754;2023-05-21T03:46:13;96169.66;;;13.28;68.87
60479;BME280;46321;48.398;11.754;2023-05-21T03:48:38;96172.94;;;13.30;68.84
60479;BME280;46321;48.398;11.754;2023-05-21T03:51:04;96172.09;;;13.30;68.89
60479;BME280;46321;48.398;11.754;2023-05-21T03:53:29;96176.19;;;13.25;69.22
60479;BME280;46321;48.398;11.754;2023-05-21T03:55:54;96173.94;;;13.29;68.69
60479;BME280;46321;48.398;11.754;2023-05-21T03:58:23;96174.94;;;13.21;69.20
60479;BME280;46321;48.398;11.754;2023-05-21T04:00:48;96172.50;;;13.26;69.08
60479;BME280;46321;48.398;11.754;2023-05-21T04:03:14;96173.91;;;13.22;68.89
60479;BME280;46321;48.398;11.754;2023-05-21T04:05:43;96178.22;;;13.23;69.61
60479;BME280;46321;48.398;11.754;2023-05-21T04:08:08;96178.59;;;13.20;69.49
60479;BME280;46321;48.398;11.754;2023-05-21T04:10:34;96176.38;;;13.17;69.85
60479;BME280;46321;48.398;11.754;2023-05-21T04:12:59;96186.19;;;13.23;69.61
60479;BME280;46321;48.398;11.754;2023-05-21T04:15:25;96183.75;;;13.28;69.02
60479;BME280;46321;48.398;11.754;2023-05-21T04:17:52;96188.28;;;13.42;68.83
60479;BME280;46321;48.398;11.754;2023-05-21T04:20:17;96179.50;;;13.41;68.86
60479;BME280;46321;48.398;11.754;2023-05-21T04:22:42;96187.03;;;13.44;68.30
60479;BME280;46321;48.398;11.754;2023-05-21T04:25:08;96192.19;;;13.46;68.66
60479;BME280;46321;48.398;11.754;2023-05-21T04:27:35;96194.84;;;13.46;68.99
60479;BME280;46321;48.398;11.754;2023-05-21T04:30:00;96187.88;;;13.45;68.86
60479;BME280;46321;48.398;11.754;2023-05-21T04:32:25;96190.16;;;13.48;68.71
60479;BME280;46321;48.398;11.754;2023-05-21T04:34:52;96193.47;;;13.57;68.95
60479;BME280;46321;48.398;11.754;2023-05-21T04:37:18;96185.06;;;13.60;69.00
60479;BME280;46321;48.398;11.754;2023-05-21T04:39:43;96193.50;;;13.70;68.47
60479;BME280;46321;48.398;11.754;2023-05-21T04:42:09;96201.03;;;13.73;68.58
60479;BME280;46321;48.398;11.754;2023-05-21T04:44:37;96199.81;;;13.76;69.04
60479;BME280;46321;48.398;11.754;2023-05-21T04:47:04;96192.06;;;13.81;69.21
60479;BME280;46321;48.398;11.754;2023-05-21T04:49:29;96196.56;;;13.88;69.11
60479;BME280;46321;48.398;11.754;2023-05-21T04:51:54;96206.00;;;13.90;68.55
60479;BME280;46321;48.398;11.754;2023-05-21T04:54:21;96198.63;;;13.99;68.17
60479;BME280;46321;48.398;11.754;2023-05-21T04:56:46;96200.66;;;13.90;69.14
60479;BME280;46321;48.398;11.754;2023-05-21T04:59:12;96198.63;;;14.06;68.44
60479;BME280;46321;48.398;11.754;2023-05-21T05:01:37;96198.63;;;14.13;68.81
60479;BME280;46321;48.398;11.754;2023-05-21T05:04:03;96208.84;;;14.16;68.91
60479;BME280;46321;48.398;11.754;2023-05-21T05:06:28;96208.44;;;14.19;69.05
60479;BME280;46321;48.398;11.754;2023-05-21T05:08:54;96198.41;;;14.21;68.92
60479;BME280;46321;48.398;11.754;2023-05-21T05:11:19;96202.72;;;14.29;68.97
60479;BME280;46321;48.398;11.754;2023-05-21T05:13:44;96212.31;;;14.30;69.02
60479;BME280;46321;48.398;11.754;2023-05-21T05:16:10;96206.59;;;14.33;69.25
60479;BME280;46321;48.398;11.754;2023-05-21T05:18:36;96210.28;;;14.32;69.47
60479;BME280;46321;48.398;11.754;2023-05-21T05:21:02;96212.53;;;14.42;69.07
60479;BME280;46321;48.398;11.754;2023-05-21T05:23:27;96207.59;;;14.46;68.90
60479;BME280;46321;48.398;11.754;2023-05-21T05:25:52;96197.78;;;14.53;69.54
60479;BME280;46321;48.398;11.754;2023-05-21T05:28:18;96202.88;;;14.61;68.59
60479;BME280;46321;48.398;11.754;2023-05-21T05:30:43;96210.84;;;14.61;69.00
60479;BME280;46321;48.398;11.754;2023-05-21T05:33:08;96201.38;;;14.79;68.90
60479;BME280;46321;48.398;11.754;2023-05-21T05:35:34;96199.94;;;14.83;68.41
60479;BME280;46321;48.398;11.754;2023-05-21T05:37:59;96199.13;;;14.83;68.66
60479;BME280;46321;48.398;11.754;2023-05-21T05:40:24;96199.53;;;14.93;68.18
60479;BME280;46321;48.398;11.754;2023-05-21T05:42:49;96203.63;;;14.96;67.84
60479;BME280;46321;48.398;11.754;2023-05-21T05:45:17;96199.50;;;15.00;67.96
60479;BME280;46321;48.398;11.754;2023-05-21T05:47:42;96204.00;;;15.06;67.86
60479;BME280;46321;48.398;11.754;2023-05-21T05:50:07;96198.03;;;15.11;67.77
60479;BME280;46321;48.398;11.754;2023-05-21T05:52:32;96190.41;;;15.21;67.71
60479;BME280;46321;48.398;11.754;2023-05-21T05:54:58;96200.81;;;15.37;67.84
60479;BME280;46321;48.398;11.754;2023-05-21T05:57:23;96199.16;;;15.36;67.26
60479;BME280;46321;48.398;11.754;2023-05-21T05:59:48;96200.53;;;15.45;67.23
60479;BME280;46321;48.398;11.754;2023-05-21T06:02:13;96203.56;;;15.55;66.57
60479;BME280;46321;48.398;11.754;2023-05-21T06:04:39;96202.88;;;15.67;66.44
60479;BME280;46321;48.398;11.754;2023-05-21T06:07:04;96202.88;;;15.67;66.31
60479;BME280;46321;48.398;11.754;2023-05-21T06:09:29;96203.47;;;15.69;66.09
60479;BME280;46321;48.398;11.754;2023-05-21T06:11:55;96206.47;;;15.79;66.48
60479;BME280;46321;48.398;11.754;2023-05-21T06:14:20;96207.91;;;15.82;66.37
60479;BME280;46321;48.398;11.754;2023-05-21T06:16:45;96202.38;;;15.84;66.01
60479;BME280;46321;48.398;11.754;2023-05-21T06:19:10;96201.66;;;15.95;66.18
60479;BME280;46321;48.398;11.754;2023-05-21T06:21:36;96200.44;;;15.91;66.08
60479;BME280;46321;48.398;11.754;2023-05-21T06:24:01;96205.72;;;16.05;66.31
60479;BME280;46321;48.398;11.754;2023-05-21T06:26:26;96203.00;;;16.11;65.72
60479;BME280;46321;48.398;11.754;2023-05-21T06:28:51;96199.91;;;16.14;64.94
60479;BME280;46321;48.398;11.754;2023-05-21T06:31:17;96199.63;;;16.23;64.96
60479;BME280;46321;48.398;11.754;2023-05-21T06:33:42;96205.22;;;16.40;65.27
60479;BME280;46321;48.398;11.754;2023-05-21T06:36:08;96209.72;;;16.46;64.23
60479;BME280;46321;48.398;11.754;2023-05-21T06:38:33;96215.19;;;16.52;64.46
60479;BME280;46321;48.398;11.754;2023-05-21T06:40:58;96205.97;;;16.47;64.58
60479;BME280;46321;48.398;11.754;2023-05-21T06:43:24;96213.50;;;16.57;64.18
60479;BME280;46321;48.398;11.754;2023-05-21T06:45:49;96208.38;;;16.75;63.62
60479;BME280;46321;48.398;11.754;2023-05-21T06:48:15;96205.34;;;16.90;63.83
60479;BME280;46321;48.398;11.754;2023-05-21T06:50:43;96202.75;;;17.02;62.95
60479;BME280;46321;48.398;11.754;2023-05-21T06:53:08;96202.00;;;17.13;61.82
60479;BME280;46321;48.398;11.754;2023-05-21T06:55:34;96203.34;;;17.04;62.31
60479;BME280;46321;48.398;11.754;2023-05-21T06:58:00;96210.91;;;17.07;62.40
60479;BME280;46321;48.398;11.754;2023-05-21T07:00:25;96207.34;;;17.32;61.57
60479;BME280;46321;48.398;11.754;2023-05-21T07:02:50;96214.69;;;17.37;61.44
60479;BME280;46321;48.398;11.754;2023-05-21T07:05:16;96200.91;;;17.52;60.86
60479;BME280;46321;48.398;11.754;2023-05-21T07:07:41;96210.97;;;17.69;60.46
60479;BME280;46321;48.398;11.754;2023-05-21T07:10:07;96208.88;;;17.71;59.65
60479;BME280;46321;48.398;11.754;2023-05-21T07:12:32;96210.78;;;17.82;59.43
60479;BME280;46321;48.398;11.754;2023-05-21T07:14:57;96204.66;;;18.06;59.23
60479;BME280;46321;48.398;11.754;2023-05-21T07:17:23;96201.38;;;17.92;59.34
60479;BME280;46321;48.398;11.754;2023-05-21T07:19:48;96205.59;;;18.12;59.55
60479;BME280;46321;48.398;11.754;2023-05-21T07:22:13;96204.38;;;18.38;59.55
60479;BME280;46321;48.398;11.754;2023-05-21T07:24:38;96203.44;;;18.45;59.26
60479;BME280;46321;48.398;11.754;2023-05-21T07:27:04;96199.25;;;18.37;57.71
60479;BME280;46321;48.398;11.754;2023-05-21T07:29:32;96205.31;;;18.56;57.83
60479;BME280;46321;48.398;11.754;2023-05-21T07:31:57;96198.41;;;18.48;57.59
60479;BME280;46321;48.398;11.754;2023-05-21T07:34:22;96203.66;;;18.67;57.47
60479;BME280;46321;48.398;11.754;2023-05-21T07:36:48;96200.59;;;18.99;57.73
60479;BME280;46321;48.398;11.754;2023-05-21T07:39:13;96202.22;;;19.00;56.85
60479;BME280;46321;48.398;11.754;2023-05-21T07:41:38;96207.47;;;18.95;56.32
60479;BME280;46321;48.398;11.754;2023-05-21T07:44:03;96206.06;;;19.05;56.65
60479;BME280;46321;48.398;11.754;2023-05-21T07:46:29;96211.22;;;18.94;56.33
60479;BME280;46321;48.398;11.754;2023-05-21T07:48:54;96212.81;;;19.19;55.94
60479;BME280;46321;48.398;11.754;2023-05-21T07:51:19;96207.19;;;19.09;56.12
60479;BME280;46321;48.398;11.754;2023-05-21T07:53:45;96206.81;;;18.88;56.74
60479;BME280;46321;48.398;11.754;2023-05-21T07:56:10;96208.91;;;18.86;56.96
60479;BME280;46321;48.398;11.754;2023-05-21T07:58:35;96204.56;;;18.97;56.32
60479;BME280;46321;48.398;11.754;2023-05-21T08:01:00;96203.59;;;19.15;56.42
60479;BME280;46321;48.398;11.754;2023-05-21T08:03:26;96207.19;;;19.09;56.74
60479;BME280;46321;48.398;11.754;2023-05-21T08:05:54;96203.13;;;19.18;56.54
60479;BME280;46321;48.398;11.754;2023-05-21T08:08:20;96200.34;;;19.01;56.39
60479;BME280;46321;48.398;11.754;2023-05-21T08:10:48;96197.38;;;19.27;57.12
60479;BME280;46321;48.398;11.754;2023-05-21T08:13:14;96200.94;;;19.44;56.69
60479;BME280;46321;48.398;11.754;2023-05-21T08:15:40;96198.34;;;19.50;56.56
60479;BME280;46321;48.398;11.754;2023-05-21T08:18:05;96204.53;;;19.50;55.69
60479;BME280;46321;48.398;11.754;2023-05-21T08:20:31;96203.53;;;19.68;55.41
60479;BME280;46321;48.398;11.754;2023-05-21T08:22:57;96203.22;;;19.82;55.66
60479;BME280;46321;48.398;11.754;2023-05-21T08:25:24;96202.09;;;19.78;54.75
60479;BME280;46321;48.398;11.754;2023-05-21T08:27:49;96208.03;;;19.80;55.37
60479;BME280;46321;48.398;11.754;2023-05-21T08:30:15;96200.19;;;19.78;55.36
60479;BME280;46321;48.398;11.754;2023-05-21T08:32:40;96195.91;;;19.95;55.84
60479;BME280;46321;48.398;11.754;2023-05-21T08:35:06;96205.91;;;19.82;54.82
60479;BME280;46321;48.398;11.754;2023-05-21T08:37:32;96207.38;;;19.90;53.60
60479;BME280;46321;48.398;11.754;2023-05-21T08:39:57;96207.63;;;20.06;52.26
60479;BME280;46321;48.398;11.754;2023-05-21T08:42:42;96207.34;;;20.19;52.64
60479;BME280;46321;48.398;11.754;2023-05-21T08:45:11;96210.19;;;20.30;51.76
60479;BME280;46321;48.398;11.754;2023-05-21T08:47:40;96218.81;;;20.14;51.78
60479;BME280;46321;48.398;11.754;2023-05-21T08:50:10;96207.59;;;20.35;51.05
60479;BME280;46321;48.398;11.754;2023-05-21T08:52:36;96209.94;;;20.48;50.75
60479;BME280;46321;48.398;11.754;2023-05-21T08:55:05;96206.94;;;20.45;51.97
60479;BME280;46321;48.398;11.754;2023-05-21T08:57:31;96201.84;;;20.66;51.04
60479;BME280;46321;48.398;11.754;2023-05-21T08:59:57;96205.09;;;20.68;51.39
60479;BME280;46321;48.398;11.754;2023-05-21T09:02:23;96214.53;;;20.70;50.81
60479;BME280;46321;48.398;11.754;2023-05-21T09:04:54;96204.13;;;20.74;50.31
60479;BME280;46321;48.398;11.754;2023-05-21T09:07:23;96203.34;;;20.96;50.64
60479;BME280;46321;48.398;11.754;2023-05-21T09:09:55;96208.47;;;21.20;50.35
60479;BME280;46321;48.398;11.754;2023-05-21T09:12:22;96204.91;;;21.37;49.19
60479;BME280;46321;48.398;11.754;2023-05-21T09:14:48;96210.41;;;21.47;49.42
60479;BME280;46321;48.398;11.754;2023-05-21T09:17:14;96203.75;;;21.55;47.97
60479;BME280;46321;48.398;11.754;2023-05-21T09:20:10;96203.59;;;21.67;48.00
60479;BME280;46321;48.398;11.754;2023-05-21T09:22:47;96206.50;;;21.60;48.02
60479;BME280;46321;48.398;11.754;2023-05-21T09:25:23;96207.38;;;21.66;46.71
60479;BME280;46321;48.398;11.754;2023-05-21T09:27:49;96206.38;;;21.78;46.76
60479;BME280;46321;48.398;11.754;2023-05-21T09:30:16;96202.19;;;21.87;46.53
60479;BME280;46321;48.398;11.754;2023-05-21T09:32:43;96206.53;;;21.88;45.88
60479;BME280;46321;48.398;11.754;2023-05-21T09:35:11;96206.44;;;21.83;46.48
60479;BME280;46321;48.398;11.754;2023-05-21T09:37:44;96209.31;;;21.99;46.09
60479;BME280;46321;48.398;11.754;2023-05-21T09:40:10;96207.13;;;21.95;46.39
60479;BME280;46321;48.398;11.754;2023-05-21T09:42:40;96206.25;;;22.17;45.35
60479;BME280;46321;48.398;11.754;2023-05-21T09:45:09;96212.75;;;22.22;44.96
60479;BME280;46321;48.398;11.754;2023-05-21T09:47:41;96208.00;;;22.39;44.16
60479;BME280;46321;48.398;11.754;2023-05-21T09:50:20;96202.31;;;22.36;44.39
60479;BME280;46321;48.398;11.754;2023-05-21T09:52:47;96225.09;;;22.17;44.00
60479;BME280;46321;48.398;11.754;2023-05-21T09:55:15;96207.78;;;22.46;42.89
60479;BME280;46321;48.398;11.754;2023-05-21T09:57:42;96204.38;;;22.61;42.57
60479;BME280;46321;48.398;11.754;2023-05-21T10:00:09;96195.97;;;23.01;42.16
60479;BME280;46321;48.398;11.754;2023-05-21T10:02:43;96208.06;;;23.52;41.83
60479;BME280;46321;48.398;11.754;2023-05-21T10:05:09;96197.06;;;23.00;41.97
60479;BME280;46321;48.398;11.754;2023-05-21T10:07:36;96200.16;;;23.35;42.86
60479;BME280;46321;48.398;11.754;2023-05-21T10:10:03;96203.75;;;23.51;42.12
60479;BME280;46321;48.398;11.754;2023-05-21T10:12:29;96199.19;;;23.78;41.24
60479;BME280;46321;48.398;11.754;2023-05-21T10:14:59;96209.69;;;23.64;40.63
60479;BME280;46321;48.398;11.754;2023-05-21T10:17:27;96199.22;;;23.94;41.04
60479;BME280;46321;48.398;11.754;2023-05-21T10:19:54;96213.22;;;23.64;40.06
60479;BME280;46321;48.398;11.754;2023-05-21T10:22:24;96191.41;;;24.34;40.01
60479;BME280;46321;48.398;11.754;2023-05-21T10:24:51;96194.81;;;24.81;38.49
60479;BME280;46321;48.398;11.754;2023-05-21T10:27:17;96185.72;;;24.25;39.54
60479;BME280;46321;48.398;11.754;2023-05-21T10:29:43;96186.53;;;24.26;40.86
60479;BME280;46321;48.398;11.754;2023-05-21T10:32:11;96193.47;;;24.84;38.58
60479;BME280;46321;48.398;11.754;2023-05-21T10:34:37;96185.16;;;24.33;39.84
60479;BME280;46321;48.398;11.754;2023-05-21T10:37:03;96180.84;;;24.27;40.21
60479;BME280;46321;48.398;11.754;2023-05-21T10:39:28;96179.75;;;24.59;40.20
60479;BME280;46321;48.398;11.754;2023-05-21T10:42:05;96184.75;;;25.03;39.27
60479;BME280;46321;48.398;11.754;2023-05-21T10:44:48;96173.91;;;25.13;37.46
60479;BME280;46321;48.398;11.754;2023-05-21T10:59:18;96171.56;;;25.47;35.08
60479;BME280;46321;48.398;11.754;2023-05-21T11:01:50;96178.69;;;25.27;33.26
60479;BME280;46321;48.398;11.754;2023-05-21T11:04:22;96174.91;;;25.33;34.01
60479;BME280;46321;48.398;11.754;2023-05-21T11:06:48;96180.56;;;25.32;34.84
60479;BME280;46321;48.398;11.754;2023-05-21T11:09:14;96159.56;;;25.58;33.98
60479;BME280;46321;48.398;11.754;2023-05-21T11:16:56;96175.56;;;25.55;32.98
60479;BME280;46321;48.398;11.754;2023-05-21T11:19:31;96174.22;;;25.57;33.28
60479;BME280;46321;48.398;11.754;2023-05-21T11:21:58;96171.94;;;25.75;34.00
60479;BME280;46321;48.398;11.754;2023-05-21T11:24:23;96165.31;;;25.52;34.74
60479;BME280;46321;48.398;11.754;2023-05-21T11:29:16;96178.28;;;24.99;34.45
60479;BME280;46321;48.398;11.754;2023-05-21T11:31:46;96165.06;;;25.43;35.15
60479;BME280;46321;48.398;11.754;2023-05-21T11:34:22;96171.56;;;25.47;34.86
60479;BME280;46321;48.398;11.754;2023-05-21T11:39:40;96175.66;;;24.73;35.99
60479;BME280;46321;48.398;11.754;2023-05-21T11:42:06;96174.81;;;24.72;35.16
60479;BME280;46321;48.398;11.754;2023-05-21T11:44:38;96167.50;;;24.78;35.23
60479;BME280;46321;48.398;11.754;2023-05-21T11:47:05;96159.88;;;24.90;35.36
60479;BME280;46321;48.398;11.754;2023-05-21T11:49:31;96166.19;;;24.70;35.92
60479;BME280;46321;48.398;11.754;2023-05-21T11:51:58;96170.19;;;24.83;35.86
60479;BME280;46321;48.398;11.754;2023-05-21T11:54:24;96172.31;;;25.02;35.03
60479;BME280;46321;48.398;11.754;2023-05-21T11:56:51;96171.78;;;24.95;33.35
60479;BME280;46321;48.398;11.754;2023-05-21T11:59:17;96168.34;;;24.73;33.43
60479;BME280;46321;48.398;11.754;2023-05-21T12:01:42;96159.34;;;24.99;35.14
60479;BME280;46321;48.398;11.754;2023-05-21T12:04:09;96166.56;;;25.19;35.59
60479;BME280;46321;48.398;11.754;2023-05-21T12:06:37;96168.41;;;25.29;32.71
60479;BME280;46321;48.398;11.754;2023-05-21T12:09:02;96157.00;;;25.37;31.31
60479;BME280;46321;48.398;11.754;2023-05-21T12:11:29;96151.81;;;25.41;31.45
60479;BME280;46321;48.398;11.754;2023-05-21T12:13:54;96156.41;;;25.41;32.38
60479;BME280;46321;48.398;11.754;2023-05-21T12:16:21;96151.56;;;25.37;33.10
60479;BME280;46321;48.398;11.754;2023-05-21T12:18:46;96153.13;;;25.49;33.49
60479;BME280;46321;48.398;11.754;2023-05-21T12:21:12;96156.91;;;25.53;33.13
60479;BME280;46321;48.398;11.754;2023-05-21T12:23:37;96156.84;;;25.58;33.66
60479;BME280;46321;48.398;11.754;2023-05-21T12:26:02;96163.91;;;25.59;32.52
60479;BME280;46321;48.398;11.754;2023-05-21T12:28:28;96157.34;;;25.71;31.94
60479;BME280;46321;48.398;11.754;2023-05-21T12:30:54;96163.28;;;25.78;32.18
60479;BME280;46321;48.398;11.754;2023-05-21T12:33:19;96148.59;;;25.84;31.48
60479;BME280;46321;48.398;11.754;2023-05-21T12:35:45;96153.38;;;25.93;31.54
60479;BME280;46321;48.398;11.754;2023-05-21T12:38:13;96148.81;;;25.88;32.30
60479;BME280;46321;48.398;11.754;2023-05-21T12:40:39;96142.25;;;25.94;32.25
60479;BME280;46321;48.398;11.754;2023-05-21T12:43:05;96155.44;;;26.06;31.88
60479;BME280;46321;48.398;11.754;2023-05-21T12:45:31;96172.88;;;25.95;32.60
60479;BME280;46321;48.398;11.754;2023-05-21T12:48:00;96155.13;;;25.78;32.20
60479;BME280;46321;48.398;11.754;2023-05-21T12:50:25;96147.56;;;25.70;32.28
60479;BME280;46321;48.398;11.754;2023-05-21T12:52:55;96150.53;;;26.09;33.02
60479;BME280;46321;48.398;11.754;2023-05-21T12:55:22;96152.25;;;25.99;31.24
60479;BME280;46321;48.398;11.754;2023-05-21T12:57:49;96157.47;;;25.90;31.92
60479;BME280;46321;48.398;11.754;2023-05-21T13:00:22;96143.38;;;26.23;31.26
60479;BME280;46321;48.398;11.754;2023-05-21T13:02:47;96150.19;;;26.50;32.43
60479;BME280;46321;48.398;11.754;2023-05-21T13:05:16;96141.09;;;26.36;29.59
60479;BME280;46321;48.398;11.754;2023-05-21T13:07:42;96141.88;;;26.66;31.23
60479;BME280;46321;48.398;11.754;2023-05-21T13:10:11;96146.38;;;26.51;30.42